sensor_id;sensor_type;location;lat;lon;timestamp;P1;durP1;ratioP1;P2;durP2;ratioP2
19605;SDS011;9950;50.168;8.210;2023-11-22T00:01:58;8.27;;;5.10;;
19605;SDS011;9950;50.168;8.210;2023-11-22T00:04:25;8.23;;;5.20;;
19605;SDS011;9950;50.168;8.210;2023-11-22T00:06:52;7.40;;;4.70;;
19605;SDS011;9950;50.168;8.210;2023-11-22T00:09:19;9.07;;;5.57;;
19605;SDS011;9950;50.168;8.210;2023-11-22T00:11:48;10.48;;;5.20;;
19605;SDS011;9950;50.168;8.210;2023-11-22T00:14:15;8.10;;;4.97;;
19605;SDS011;9950;50.168;8.210;2023-11-22T00:16:42;7.82;;;5.22;;
19605;SDS011;9950;50.168;8.210;2023-11-22T00:19:10;8.45;;;5.35;;
19605;SDS011;9950;50.168;8.210;2023-11-22T00:21:37;9.52;;;5.72;;
19605;SDS011;9950;50.168;8.210;2023-11-22T00:24:05;8.95;;;5.40;;
19605;SDS011;9950;50.168;8.210;2023-11-22T00:26:32;8.85;;;5.72;;
19605;SDS011;9950;50.168;8.210;2023-11-22T00:28:59;11.27;;;5.85;;
19605;SDS011;9950;50.168;8.210;2023-11-22T00:31:26;10.60;;;6.65;;
19605;SDS011;9950;50.168;8.210;2023-11-22T00:33:54;12.07;;;6.10;;
19605;SDS011;9950;50.168;8.210;2023-11-22T00:36:23;9.27;;;5.93;;
19605;SDS011;9950;50.168;8.210;2023-11-22T00:38:50;10.13;;;5.93;;
19605;SDS011;9950;50.168;8.210;2023-11-22T00:41:17;9.90;;;5.72;;
19605;SDS011;9950;50.168;8.210;2023-11-22T00:43:44;10.98;;;5.95;;
19605;SDS011;9950;50.168;8.210;2023-11-22T00:46:11;10.73;;;6.10;;
19605;SDS011;9950;50.168;8.210;2023-11-22T00:48:38;9.50;;;6.18;;
19605;SDS011;9950;50.168;8.210;2023-11-22T00:51:05;11.93;;;6.40;;
19605;SDS011;9950;50.168;8.210;2023-11-22T00:53:36;11.90;;;5.93;;
19605;SDS011;9950;50.168;8.210;2023-11-22T00:56:04;9.52;;;5.85;;
19605;SDS011;9950;50.168;8.210;2023-11-22T00:58:32;10.07;;;5.75;;
19605;SDS011;9950;50.168;8.210;2023-11-22T01:00:59;11.18;;;6.85;;
19605;SDS011;9950;50.168;8.210;2023-11-22T01:03:26;11.30;;;6.22;;
19605;SDS011;9950;50.168;8.210;2023-11-22T01:05:53;12.35;;;6.32;;
19605;SDS011;9950;50.168;8.210;2023-11-22T01:08:20;10.32;;;6.10;;
19605;SDS011;9950;50.168;8.210;2023-11-22T01:10:49;10.55;;;5.85;;
19605;SDS011;9950;50.168;8.210;2023-11-22T01:13:16;10.93;;;6.43;;
19605;SDS011;9950;50.168;8.210;2023-11-22T01:15:43;12.65;;;6.70;;
19605;SDS011;9950;50.168;8.210;2023-11-22T01:18:11;9.73;;;6.00;;
19605;SDS011;9950;50.168;8.210;2023-11-22T01:20:39;12.00;;;7.20;;
19605;SDS011;9950;50.168;8.210;2023-11-22T01:23:06;12.82;;;6.20;;
19605;SDS011;9950;50.168;8.210;2023-11-22T01:25:33;9.65;;;5.38;;
19605;SDS011;9950;50.168;8.210;2023-11-22T01:28:01;10.02;;;6.07;;
19605;SDS011;9950;50.168;8.210;2023-11-22T01:30:28;9.82;;;5.65;;
19605;SDS011;9950;50.168;8.210;2023-11-22T01:32:56;10.40;;;5.60;;
19605;SDS011;9950;50.168;8.210;2023-11-22T01:35:23;10.13;;;5.97;;
19605;SDS011;9950;50.168;8.210;2023-11-22T01:37:50;11.55;;;5.80;;
19605;SDS011;9950;50.168;8.210;2023-11-22T01:40:17;10.60;;;5.95;;
19605;SDS011;9950;50.168;8.210;2023-11-22T01:42:45;10.45;;;5.95;;
19605;SDS011;9950;50.168;8.210;2023-11-22T01:45:14;10.45;;;6.38;;
19605;SDS011;9950;50.168;8.210;2023-11-22T01:47:41;13.55;;;6.00;;
19605;SDS011;9950;50.168;8.210;2023-11-22T01:50:08;10.90;;;6.18;;
19605;SDS011;9950;50.168;8.210;2023-11-22T01:52:36;8.52;;;5.38;;
19605;SDS011;9950;50.168;8.210;2023-11-22T01:55:04;10.00;;;5.72;;
19605;SDS011;9950;50.168;8.210;2023-11-22T01:57:31;12.82;;;5.55;;
19605;SDS011;9950;50.168;8.210;2023-11-22T01:59:59;10.32;;;5.70;;
19605;SDS011;9950;50.168;8.210;2023-11-22T02:02:29;9.85;;;5.78;;
19605;SDS011;9950;50.168;8.210;2023-11-22T02:04:56;10.07;;;5.55;;
19605;SDS011;9950;50.168;8.210;2023-11-22T02:07:23;9.18;;;5.60;;
19605;SDS011;9950;50.168;8.210;2023-11-22T02:09:51;12.90;;;6.18;;
19605;SDS011;9950;50.168;8.210;2023-11-22T02:12:18;11.35;;;5.38;;
19605;SDS011;9950;50.168;8.210;2023-11-22T02:14:45;11.27;;;5.68;;
19605;SDS011;9950;50.168;8.210;2023-11-22T02:17:13;11.25;;;6.45;;
19605;SDS011;9950;50.168;8.210;2023-11-22T02:19:42;8.23;;;5.63;;
19605;SDS011;9950;50.168;8.210;2023-11-22T02:22:09;10.13;;;5.72;;
19605;SDS011;9950;50.168;8.210;2023-11-22T02:24:38;10.15;;;6.28;;
19605;SDS011;9950;50.168;8.210;2023-11-22T02:27:05;10.65;;;6.43;;
19605;SDS011;9950;50.168;8.210;2023-11-22T02:29:32;11.95;;;6.05;;
19605;SDS011;9950;50.168;8.210;2023-11-22T02:31:59;10.57;;;5.50;;
19605;SDS011;9950;50.168;8.210;2023-11-22T02:34:26;12.07;;;6.63;;
19605;SDS011;9950;50.168;8.210;2023-11-22T02:36:53;13.75;;;6.60;;
19605;SDS011;9950;50.168;8.210;2023-11-22T02:39:20;19.83;;;7.00;;
19605;SDS011;9950;50.168;8.210;2023-11-22T02:41:51;11.68;;;6.00;;
19605;SDS011;9950;50.168;8.210;2023-11-22T02:44:18;10.70;;;5.55;;
19605;SDS011;9950;50.168;8.210;2023-11-22T02:46:45;9.88;;;6.07;;
19605;SDS011;9950;50.168;8.210;2023-11-22T02:49:12;10.23;;;5.65;;
19605;SDS011;9950;50.168;8.210;2023-11-22T02:51:39;11.20;;;5.50;;
19605;SDS011;9950;50.168;8.210;2023-11-22T02:54:06;9.55;;;5.85;;
19605;SDS011;9950;50.168;8.210;2023-11-22T02:56:33;12.60;;;5.97;;
19605;SDS011;9950;50.168;8.210;2023-11-22T02:59:02;10.02;;;5.80;;
19605;SDS011;9950;50.168;8.210;2023-11-22T03:01:29;10.13;;;5.50;;
19605;SDS011;9950;50.168;8.210;2023-11-22T03:03:56;9.95;;;5.95;;
19605;SDS011;9950;50.168;8.210;2023-11-22T03:06:25;9.82;;;5.72;;
19605;SDS011;9950;50.168;8.210;2023-11-22T03:08:53;9.70;;;5.95;;
19605;SDS011;9950;50.168;8.210;2023-11-22T03:11:20;10.23;;;5.88;;
19605;SDS011;9950;50.168;8.210;2023-11-22T03:13:47;10.35;;;5.88;;
19605;SDS011;9950;50.168;8.210;2023-11-22T03:16:16;11.98;;;5.70;;
19605;SDS011;9950;50.168;8.210;2023-11-22T03:18:43;9.30;;;5.40;;
19605;SDS011;9950;50.168;8.210;2023-11-22T03:21:11;8.90;;;5.10;;
19605;SDS011;9950;50.168;8.210;2023-11-22T03:23:38;9.40;;;5.13;;
19605;SDS011;9950;50.168;8.210;2023-11-22T03:26:05;11.02;;;5.80;;
19605;SDS011;9950;50.168;8.210;2023-11-22T03:28:32;10.27;;;5.60;;
19605;SDS011;9950;50.168;8.210;2023-11-22T03:31:00;10.20;;;5.75;;
19605;SDS011;9950;50.168;8.210;2023-11-22T03:33:29;11.00;;;5.75;;
19605;SDS011;9950;50.168;8.210;2023-11-22T03:35:56;9.88;;;5.72;;
19605;SDS011;9950;50.168;8.210;2023-11-22T03:38:24;8.80;;;5.43;;
19605;SDS011;9950;50.168;8.210;2023-11-22T03:40:51;10.15;;;5.40;;
19605;SDS011;9950;50.168;8.210;2023-11-22T03:43:18;10.27;;;5.00;;
19605;SDS011;9950;50.168;8.210;2023-11-22T03:45:45;8.40;;;5.25;;
19605;SDS011;9950;50.168;8.210;2023-11-22T03:48:12;8.05;;;5.00;;
19605;SDS011;9950;50.168;8.210;2023-11-22T03:50:41;8.65;;;4.68;;
19605;SDS011;9950;50.168;8.210;2023-11-22T03:53:08;9.88;;;4.95;;
19605;SDS011;9950;50.168;8.210;2023-11-22T03:55:35;8.38;;;5.15;;
19605;SDS011;9950;50.168;8.210;2023-11-22T03:58:02;7.97;;;5.00;;
19605;SDS011;9950;50.168;8.210;2023-11-22T04:00:29;9.27;;;4.18;;
19605;SDS011;9950;50.168;8.210;2023-11-22T04:02:57;6.18;;;4.28;;
19605;SDS011;9950;50.168;8.210;2023-11-22T04:05:26;10.40;;;5.28;;
19605;SDS011;9950;50.168;8.210;2023-11-22T04:07:55;8.85;;;5.15;;
19605;SDS011;9950;50.168;8.210;2023-11-22T04:10:22;9.65;;;5.07;;
19605;SDS011;9950;50.168;8.210;2023-11-22T04:12:50;11.68;;;5.35;;
19605;SDS011;9950;50.168;8.210;2023-11-22T04:15:17;10.30;;;5.28;;
19605;SDS011;9950;50.168;8.210;2023-11-22T04:17:44;11.52;;;5.90;;
19605;SDS011;9950;50.168;8.210;2023-11-22T04:20:12;11.32;;;5.75;;
19605;SDS011;9950;50.168;8.210;2023-11-22T04:22:40;10.00;;;5.25;;
19605;SDS011;9950;50.168;8.210;2023-11-22T04:25:08;11.38;;;6.22;;
19605;SDS011;9950;50.168;8.210;2023-11-22T04:27:37;9.27;;;5.05;;
19605;SDS011;9950;50.168;8.210;2023-11-22T04:30:05;11.30;;;6.50;;
19605;SDS011;9950;50.168;8.210;2023-11-22T04:32:33;9.30;;;5.45;;
19605;SDS011;9950;50.168;8.210;2023-11-22T04:35:01;12.32;;;5.65;;
19605;SDS011;9950;50.168;8.210;2023-11-22T04:37:28;10.32;;;5.70;;
19605;SDS011;9950;50.168;8.210;2023-11-22T04:39:57;10.02;;;5.63;;
19605;SDS011;9950;50.168;8.210;2023-11-22T04:42:25;14.40;;;6.30;;
19605;SDS011;9950;50.168;8.210;2023-11-22T04:44:53;11.38;;;5.95;;
19605;SDS011;9950;50.168;8.210;2023-11-22T04:47:20;11.77;;;5.93;;
19605;SDS011;9950;50.168;8.210;2023-11-22T04:49:47;13.55;;;6.05;;
19605;SDS011;9950;50.168;8.210;2023-11-22T04:52:15;9.80;;;5.18;;
19605;SDS011;9950;50.168;8.210;2023-11-22T04:54:42;10.75;;;5.22;;
19605;SDS011;9950;50.168;8.210;2023-11-22T04:57:09;10.23;;;5.85;;
19605;SDS011;9950;50.168;8.210;2023-11-22T04:59:38;11.77;;;6.20;;
19605;SDS011;9950;50.168;8.210;2023-11-22T05:02:05;9.52;;;5.57;;
19605;SDS011;9950;50.168;8.210;2023-11-22T05:04:33;10.50;;;5.97;;
19605;SDS011;9950;50.168;8.210;2023-11-22T05:07:00;9.35;;;5.10;;
19605;SDS011;9950;50.168;8.210;2023-11-22T05:09:28;10.25;;;5.55;;
19605;SDS011;9950;50.168;8.210;2023-11-22T05:11:55;10.73;;;5.63;;
19605;SDS011;9950;50.168;8.210;2023-11-22T05:14:22;10.35;;;5.53;;
19605;SDS011;9950;50.168;8.210;2023-11-22T05:16:51;8.63;;;5.00;;
19605;SDS011;9950;50.168;8.210;2023-11-22T05:19:18;11.45;;;5.97;;
19605;SDS011;9950;50.168;8.210;2023-11-22T05:21:46;10.88;;;5.63;;
19605;SDS011;9950;50.168;8.210;2023-11-22T05:24:13;9.73;;;5.32;;
19605;SDS011;9950;50.168;8.210;2023-11-22T05:26:40;9.25;;;5.03;;
19605;SDS011;9950;50.168;8.210;2023-11-22T05:29:07;10.88;;;5.95;;
19605;SDS011;9950;50.168;8.210;2023-11-22T05:31:35;12.05;;;5.55;;
19605;SDS011;9950;50.168;8.210;2023-11-22T05:34:04;13.40;;;5.72;;
19605;SDS011;9950;50.168;8.210;2023-11-22T05:36:31;11.07;;;5.95;;
19605;SDS011;9950;50.168;8.210;2023-11-22T05:38:58;10.65;;;5.72;;
19605;SDS011;9950;50.168;8.210;2023-11-22T05:41:25;11.82;;;5.70;;
19605;SDS011;9950;50.168;8.210;2023-11-22T05:43:52;12.15;;;5.95;;
19605;SDS011;9950;50.168;8.210;2023-11-22T05:46:19;10.63;;;5.65;;
19605;SDS011;9950;50.168;8.210;2023-11-22T05:48:47;9.68;;;5.22;;
19605;SDS011;9950;50.168;8.210;2023-11-22T05:51:17;9.23;;;5.15;;
19605;SDS011;9950;50.168;8.210;2023-11-22T05:53:44;10.10;;;5.03;;
19605;SDS011;9950;50.168;8.210;2023-11-22T05:56:11;11.02;;;5.40;;
19605;SDS011;9950;50.168;8.210;2023-11-22T05:58:40;13.23;;;5.63;;
19605;SDS011;9950;50.168;8.210;2023-11-22T06:01:07;10.10;;;5.07;;
19605;SDS011;9950;50.168;8.210;2023-11-22T06:03:34;9.98;;;4.72;;
19605;SDS011;9950;50.168;8.210;2023-11-22T06:06:04;10.00;;;4.85;;
19605;SDS011;9950;50.168;8.210;2023-11-22T06:08:33;8.93;;;5.25;;
19605;SDS011;9950;50.168;8.210;2023-11-22T06:11:00;10.93;;;5.32;;
19605;SDS011;9950;50.168;8.210;2023-11-22T06:13:28;8.55;;;4.80;;
19605;SDS011;9950;50.168;8.210;2023-11-22T06:15:55;7.72;;;4.65;;
19605;SDS011;9950;50.168;8.210;2023-11-22T06:18:22;7.53;;;4.50;;
19605;SDS011;9950;50.168;8.210;2023-11-22T06:20:54;8.55;;;4.60;;
19605;SDS011;9950;50.168;8.210;2023-11-22T06:23:21;7.45;;;4.00;;
19605;SDS011;9950;50.168;8.210;2023-11-22T06:25:50;8.55;;;4.75;;
19605;SDS011;9950;50.168;8.210;2023-11-22T06:28:17;6.53;;;4.00;;
19605;SDS011;9950;50.168;8.210;2023-11-22T06:30:44;8.07;;;4.28;;
19605;SDS011;9950;50.168;8.210;2023-11-22T06:33:11;8.10;;;4.05;;
19605;SDS011;9950;50.168;8.210;2023-11-22T06:35:38;7.97;;;3.97;;
19605;SDS011;9950;50.168;8.210;2023-11-22T06:38:07;7.97;;;4.13;;
19605;SDS011;9950;50.168;8.210;2023-11-22T06:40:34;7.57;;;4.00;;
19605;SDS011;9950;50.168;8.210;2023-11-22T06:43:03;8.95;;;4.18;;
19605;SDS011;9950;50.168;8.210;2023-11-22T06:45:30;8.70;;;3.65;;
19605;SDS011;9950;50.168;8.210;2023-11-22T06:47:57;7.63;;;4.07;;
19605;SDS011;9950;50.168;8.210;2023-11-22T06:50:24;7.70;;;4.18;;
19605;SDS011;9950;50.168;8.210;2023-11-22T06:52:51;6.57;;;3.60;;
19605;SDS011;9950;50.168;8.210;2023-11-22T06:55:19;7.97;;;3.90;;
19605;SDS011;9950;50.168;8.210;2023-11-22T06:57:47;9.73;;;4.25;;
19605;SDS011;9950;50.168;8.210;2023-11-22T07:00:17;10.68;;;4.30;;
19605;SDS011;9950;50.168;8.210;2023-11-22T07:02:45;12.40;;;4.47;;
19605;SDS011;9950;50.168;8.210;2023-11-22T07:05:12;8.48;;;4.25;;
19605;SDS011;9950;50.168;8.210;2023-11-22T07:07:39;9.15;;;4.60;;
19605;SDS011;9950;50.168;8.210;2023-11-22T07:10:07;6.70;;;3.80;;
19605;SDS011;9950;50.168;8.210;2023-11-22T07:12:35;9.10;;;4.00;;
19605;SDS011;9950;50.168;8.210;2023-11-22T07:15:03;8.25;;;4.22;;
19605;SDS011;9950;50.168;8.210;2023-11-22T07:17:32;7.00;;;4.13;;
19605;SDS011;9950;50.168;8.210;2023-11-22T07:19:59;8.07;;;4.13;;
19605;SDS011;9950;50.168;8.210;2023-11-22T07:22:27;7.43;;;4.03;;
19605;SDS011;9950;50.168;8.210;2023-11-22T07:24:55;8.25;;;4.20;;
19605;SDS011;9950;50.168;8.210;2023-11-22T07:27:27;9.13;;;4.03;;
19605;SDS011;9950;50.168;8.210;2023-11-22T07:29:54;8.30;;;3.83;;
19605;SDS011;9950;50.168;8.210;2023-11-22T07:32:21;6.45;;;3.88;;
19605;SDS011;9950;50.168;8.210;2023-11-22T07:34:50;8.20;;;4.07;;
19605;SDS011;9950;50.168;8.210;2023-11-22T07:37:20;7.03;;;3.88;;
19605;SDS011;9950;50.168;8.210;2023-11-22T07:39:48;9.00;;;3.88;;
19605;SDS011;9950;50.168;8.210;2023-11-22T07:42:16;10.18;;;4.00;;
19605;SDS011;9950;50.168;8.210;2023-11-22T07:44:43;7.68;;;4.10;;
19605;SDS011;9950;50.168;8.210;2023-11-22T07:47:11;7.60;;;3.40;;
19605;SDS011;9950;50.168;8.210;2023-11-22T07:49:38;7.35;;;4.40;;
19605;SDS011;9950;50.168;8.210;2023-11-22T07:52:08;9.63;;;4.30;;
19605;SDS011;9950;50.168;8.210;2023-11-22T07:54:38;7.85;;;4.05;;
19605;SDS011;9950;50.168;8.210;2023-11-22T07:57:05;7.80;;;4.47;;
19605;SDS011;9950;50.168;8.210;2023-11-22T07:59:33;7.38;;;4.18;;
19605;SDS011;9950;50.168;8.210;2023-11-22T08:02:01;7.10;;;4.60;;
19605;SDS011;9950;50.168;8.210;2023-11-22T08:04:31;9.50;;;4.60;;
19605;SDS011;9950;50.168;8.210;2023-11-22T08:06:58;12.60;;;4.20;;
19605;SDS011;9950;50.168;8.210;2023-11-22T08:09:28;9.13;;;3.97;;
19605;SDS011;9950;50.168;8.210;2023-11-22T08:11:57;7.07;;;3.88;;
19605;SDS011;9950;50.168;8.210;2023-11-22T08:14:25;8.90;;;4.43;;
19605;SDS011;9950;50.168;8.210;2023-11-22T08:16:53;7.82;;;4.65;;
19605;SDS011;9950;50.168;8.210;2023-11-22T08:19:20;6.38;;;4.00;;
19605;SDS011;9950;50.168;8.210;2023-11-22T08:21:48;8.10;;;4.28;;
19605;SDS011;9950;50.168;8.210;2023-11-22T08:24:15;6.55;;;3.97;;
19605;SDS011;9950;50.168;8.210;2023-11-22T08:26:45;7.78;;;4.15;;
19605;SDS011;9950;50.168;8.210;2023-11-22T08:29:12;9.68;;;4.68;;
19605;SDS011;9950;50.168;8.210;2023-11-22T08:31:39;6.82;;;3.83;;
19605;SDS011;9950;50.168;8.210;2023-11-22T08:34:06;8.13;;;4.05;;
19605;SDS011;9950;50.168;8.210;2023-11-22T08:36:34;9.40;;;4.47;;
19605;SDS011;9950;50.168;8.210;2023-11-22T08:39:01;8.57;;;4.25;;
19605;SDS011;9950;50.168;8.210;2023-11-22T08:41:30;9.68;;;4.55;;
19605;SDS011;9950;50.168;8.210;2023-11-22T08:43:58;6.55;;;3.80;;
19605;SDS011;9950;50.168;8.210;2023-11-22T08:46:26;7.10;;;4.03;;
19605;SDS011;9950;50.168;8.210;2023-11-22T08:48:53;8.50;;;4.18;;
19605;SDS011;9950;50.168;8.210;2023-11-22T08:51:21;9.25;;;4.07;;
19605;SDS011;9950;50.168;8.210;2023-11-22T08:53:48;7.30;;;3.72;;
19605;SDS011;9950;50.168;8.210;2023-11-22T08:56:16;8.05;;;3.92;;
19605;SDS011;9950;50.168;8.210;2023-11-22T08:58:43;8.70;;;4.07;;
19605;SDS011;9950;50.168;8.210;2023-11-22T09:01:11;6.97;;;4.00;;
19605;SDS011;9950;50.168;8.210;2023-11-22T09:03:39;8.35;;;4.28;;
19605;SDS011;9950;50.168;8.210;2023-11-22T09:06:07;5.78;;;3.67;;
19605;SDS011;9950;50.168;8.210;2023-11-22T09:08:35;8.55;;;4.13;;
19605;SDS011;9950;50.168;8.210;2023-11-22T09:11:02;8.18;;;3.97;;
19605;SDS011;9950;50.168;8.210;2023-11-22T09:13:31;7.50;;;3.97;;
19605;SDS011;9950;50.168;8.210;2023-11-22T09:15:59;7.18;;;4.07;;
19605;SDS011;9950;50.168;8.210;2023-11-22T09:18:31;6.38;;;3.47;;
19605;SDS011;9950;50.168;8.210;2023-11-22T09:20:58;6.30;;;3.70;;
19605;SDS011;9950;50.168;8.210;2023-11-22T09:23:25;5.30;;;3.75;;
19605;SDS011;9950;50.168;8.210;2023-11-22T09:25:52;6.50;;;3.75;;
19605;SDS011;9950;50.168;8.210;2023-11-22T09:28:19;9.55;;;4.05;;
19605;SDS011;9950;50.168;8.210;2023-11-22T09:30:46;8.55;;;3.38;;
19605;SDS011;9950;50.168;8.210;2023-11-22T09:33:15;5.95;;;3.95;;
19605;SDS011;9950;50.168;8.210;2023-11-22T09:35:44;6.18;;;3.90;;
19605;SDS011;9950;50.168;8.210;2023-11-22T09:38:12;5.53;;;3.42;;
19605;SDS011;9950;50.168;8.210;2023-11-22T09:40:41;6.63;;;3.67;;
19605;SDS011;9950;50.168;8.210;2023-11-22T09:43:08;8.65;;;3.78;;
19605;SDS011;9950;50.168;8.210;2023-11-22T09:45:36;9.73;;;4.75;;
19605;SDS011;9950;50.168;8.210;2023-11-22T09:48:04;8.10;;;4.95;;
19605;SDS011;9950;50.168;8.210;2023-11-22T09:50:35;6.10;;;3.55;;
19605;SDS011;9950;50.168;8.210;2023-11-22T09:53:06;5.18;;;3.25;;
19605;SDS011;9950;50.168;8.210;2023-11-22T09:55:34;5.93;;;3.55;;
19605;SDS011;9950;50.168;8.210;2023-11-22T09:58:02;8.93;;;3.65;;
19605;SDS011;9950;50.168;8.210;2023-11-22T10:00:29;6.60;;;4.22;;
19605;SDS011;9950;50.168;8.210;2023-11-22T10:02:57;7.22;;;3.35;;
19605;SDS011;9950;50.168;8.210;2023-11-22T10:05:24;6.65;;;3.50;;
19605;SDS011;9950;50.168;8.210;2023-11-22T10:07:53;7.32;;;4.55;;
19605;SDS011;9950;50.168;8.210;2023-11-22T10:10:22;8.98;;;3.50;;
19605;SDS011;9950;50.168;8.210;2023-11-22T10:12:52;7.38;;;4.03;;
19605;SDS011;9950;50.168;8.210;2023-11-22T10:15:21;7.88;;;3.67;;
19605;SDS011;9950;50.168;8.210;2023-11-22T10:17:53;7.90;;;3.80;;
19605;SDS011;9950;50.168;8.210;2023-11-22T10:20:22;6.50;;;3.67;;
19605;SDS011;9950;50.168;8.210;2023-11-22T10:22:51;6.07;;;3.88;;
19605;SDS011;9950;50.168;8.210;2023-11-22T10:25:19;6.47;;;3.65;;
19605;SDS011;9950;50.168;8.210;2023-11-22T10:27:49;6.82;;;3.50;;
19605;SDS011;9950;50.168;8.210;2023-11-22T10:30:17;7.95;;;4.40;;
19605;SDS011;9950;50.168;8.210;2023-11-22T10:32:44;5.55;;;4.22;;
19605;SDS011;9950;50.168;8.210;2023-11-22T10:35:11;5.43;;;3.13;;
19605;SDS011;9950;50.168;8.210;2023-11-22T10:37:41;6.18;;;3.90;;
19605;SDS011;9950;50.168;8.210;2023-11-22T10:40:10;7.28;;;4.10;;
19605;SDS011;9950;50.168;8.210;2023-11-22T10:42:38;10.27;;;4.63;;
19605;SDS011;9950;50.168;8.210;2023-11-22T10:45:09;7.20;;;3.85;;
19605;SDS011;9950;50.168;8.210;2023-11-22T10:47:36;8.90;;;4.30;;
19605;SDS011;9950;50.168;8.210;2023-11-22T10:50:07;5.72;;;3.40;;
19605;SDS011;9950;50.168;8.210;2023-11-22T10:52:36;5.00;;;3.17;;
19605;SDS011;9950;50.168;8.210;2023-11-22T10:55:04;5.80;;;3.15;;
19605;SDS011;9950;50.168;8.210;2023-11-22T10:57:32;6.65;;;3.75;;
19605;SDS011;9950;50.168;8.210;2023-11-22T11:00:00;7.18;;;3.30;;
19605;SDS011;9950;50.168;8.210;2023-11-22T11:02:32;6.40;;;3.10;;
19605;SDS011;9950;50.168;8.210;2023-11-22T11:05:02;6.93;;;3.83;;
19605;SDS011;9950;50.168;8.210;2023-11-22T11:07:32;5.45;;;3.35;;
19605;SDS011;9950;50.168;8.210;2023-11-22T11:10:04;7.05;;;3.80;;
19605;SDS011;9950;50.168;8.210;2023-11-22T11:12:31;6.18;;;3.80;;
19605;SDS011;9950;50.168;8.210;2023-11-22T11:14:58;6.63;;;3.92;;
19605;SDS011;9950;50.168;8.210;2023-11-22T11:17:26;6.78;;;3.75;;
19605;SDS011;9950;50.168;8.210;2023-11-22T11:19:54;6.18;;;4.03;;
19605;SDS011;9950;50.168;8.210;2023-11-22T11:22:21;5.55;;;3.53;;
19605;SDS011;9950;50.168;8.210;2023-11-22T11:24:49;5.25;;;3.35;;
19605;SDS011;9950;50.168;8.210;2023-11-22T11:27:26;5.43;;;3.40;;
19605;SDS011;9950;50.168;8.210;2023-11-22T11:29:54;5.68;;;3.10;;
19605;SDS011;9950;50.168;8.210;2023-11-22T11:32:29;5.50;;;3.22;;
19605;SDS011;9950;50.168;8.210;2023-11-22T11:34:58;8.70;;;3.58;;
19605;SDS011;9950;50.168;8.210;2023-11-22T11:37:31;4.35;;;2.80;;
19605;SDS011;9950;50.168;8.210;2023-11-22T11:39:58;5.82;;;3.33;;
19605;SDS011;9950;50.168;8.210;2023-11-22T11:42:25;3.40;;;2.65;;
19605;SDS011;9950;50.168;8.210;2023-11-22T11:45:06;6.03;;;3.22;;
19605;SDS011;9950;50.168;8.210;2023-11-22T11:47:35;5.03;;;3.05;;
19605;SDS011;9950;50.168;8.210;2023-11-22T11:50:04;4.78;;;3.03;;
19605;SDS011;9950;50.168;8.210;2023-11-22T11:52:31;5.45;;;3.33;;
19605;SDS011;9950;50.168;8.210;2023-11-22T11:55:00;4.82;;;2.97;;
19605;SDS011;9950;50.168;8.210;2023-11-22T11:57:30;4.05;;;3.30;;
19605;SDS011;9950;50.168;8.210;2023-11-22T11:59:57;5.43;;;3.00;;
19605;SDS011;9950;50.168;8.210;2023-11-22T12:02:24;4.95;;;3.22;;
19605;SDS011;9950;50.168;8.210;2023-11-22T12:04:51;4.10;;;2.88;;
19605;SDS011;9950;50.168;8.210;2023-11-22T12:07:21;6.88;;;3.35;;
19605;SDS011;9950;50.168;8.210;2023-11-22T12:09:48;4.90;;;3.08;;
19605;SDS011;9950;50.168;8.210;2023-11-22T12:12:16;4.68;;;2.88;;
19605;SDS011;9950;50.168;8.210;2023-11-22T12:14:43;6.53;;;3.45;;
19605;SDS011;9950;50.168;8.210;2023-11-22T12:17:10;4.40;;;2.90;;
19605;SDS011;9950;50.168;8.210;2023-11-22T12:19:38;6.18;;;3.20;;
19605;SDS011;9950;50.168;8.210;2023-11-22T12:22:05;5.70;;;3.20;;
19605;SDS011;9950;50.168;8.210;2023-11-22T12:24:34;6.05;;;3.00;;
19605;SDS011;9950;50.168;8.210;2023-11-22T12:27:03;4.45;;;2.97;;
19605;SDS011;9950;50.168;8.210;2023-11-22T12:29:35;5.10;;;3.22;;
19605;SDS011;9950;50.168;8.210;2023-11-22T12:32:03;5.07;;;3.20;;
19605;SDS011;9950;50.168;8.210;2023-11-22T12:34:30;4.57;;;2.85;;
19605;SDS011;9950;50.168;8.210;2023-11-22T12:36:58;5.10;;;3.20;;
19605;SDS011;9950;50.168;8.210;2023-11-22T12:39:26;5.30;;;3.28;;
19605;SDS011;9950;50.168;8.210;2023-11-22T12:41:54;6.53;;;2.90;;
19605;SDS011;9950;50.168;8.210;2023-11-22T12:44:22;4.93;;;3.13;;
19605;SDS011;9950;50.168;8.210;2023-11-22T12:46:50;6.43;;;3.47;;
19605;SDS011;9950;50.168;8.210;2023-11-22T12:49:22;3.70;;;2.90;;
19605;SDS011;9950;50.168;8.210;2023-11-22T12:51:50;5.65;;;2.88;;
19605;SDS011;9950;50.168;8.210;2023-11-22T12:54:17;5.35;;;3.20;;
19605;SDS011;9950;50.168;8.210;2023-11-22T12:56:46;5.72;;;2.85;;
19605;SDS011;9950;50.168;8.210;2023-11-22T12:59:15;6.00;;;3.28;;
19605;SDS011;9950;50.168;8.210;2023-11-22T13:01:42;5.15;;;3.00;;
19605;SDS011;9950;50.168;8.210;2023-11-22T13:04:10;5.43;;;3.03;;
19605;SDS011;9950;50.168;8.210;2023-11-22T13:06:39;4.75;;;2.92;;
19605;SDS011;9950;50.168;8.210;2023-11-22T13:09:07;4.65;;;3.03;;
19605;SDS011;9950;50.168;8.210;2023-11-22T13:11:39;4.80;;;2.88;;
19605;SDS011;9950;50.168;8.210;2023-11-22T13:14:06;5.43;;;2.75;;
19605;SDS011;9950;50.168;8.210;2023-11-22T13:16:35;5.10;;;2.90;;
19605;SDS011;9950;50.168;8.210;2023-11-22T13:19:04;4.95;;;3.90;;
19605;SDS011;9950;50.168;8.210;2023-11-22T13:21:31;4.10;;;2.85;;
19605;SDS011;9950;50.168;8.210;2023-11-22T13:23:58;4.28;;;2.90;;
19605;SDS011;9950;50.168;8.210;2023-11-22T13:26:25;4.30;;;3.08;;
19605;SDS011;9950;50.168;8.210;2023-11-22T13:28:52;4.25;;;2.55;;
19605;SDS011;9950;50.168;8.210;2023-11-22T13:31:21;6.38;;;3.10;;
19605;SDS011;9950;50.168;8.210;2023-11-22T13:33:50;4.55;;;2.83;;
19605;SDS011;9950;50.168;8.210;2023-11-22T13:36:17;4.63;;;2.92;;
19605;SDS011;9950;50.168;8.210;2023-11-22T13:38:44;3.80;;;2.80;;
19605;SDS011;9950;50.168;8.210;2023-11-22T13:41:12;4.20;;;2.70;;
19605;SDS011;9950;50.168;8.210;2023-11-22T13:43:39;3.78;;;2.75;;
19605;SDS011;9950;50.168;8.210;2023-11-22T13:46:06;4.88;;;3.00;;
19605;SDS011;9950;50.168;8.210;2023-11-22T13:48:35;3.33;;;2.40;;
19605;SDS011;9950;50.168;8.210;2023-11-22T13:51:04;3.75;;;2.50;;
19605;SDS011;9950;50.168;8.210;2023-11-22T13:53:33;4.28;;;3.00;;
19605;SDS011;9950;50.168;8.210;2023-11-22T13:56:03;4.75;;;2.55;;
19605;SDS011;9950;50.168;8.210;2023-11-22T13:58:34;4.57;;;2.92;;
19605;SDS011;9950;50.168;8.210;2023-11-22T14:01:01;4.80;;;2.75;;
19605;SDS011;9950;50.168;8.210;2023-11-22T14:03:31;4.55;;;3.05;;
19605;SDS011;9950;50.168;8.210;2023-11-22T14:05:58;3.72;;;2.90;;
19605;SDS011;9950;50.168;8.210;2023-11-22T14:08:27;3.72;;;2.72;;
19605;SDS011;9950;50.168;8.210;2023-11-22T14:10:54;3.78;;;2.60;;
19605;SDS011;9950;50.168;8.210;2023-11-22T14:13:21;5.18;;;2.92;;
19605;SDS011;9950;50.168;8.210;2023-11-22T14:15:48;5.05;;;2.55;;
19605;SDS011;9950;50.168;8.210;2023-11-22T14:18:16;3.83;;;2.80;;
19605;SDS011;9950;50.168;8.210;2023-11-22T14:20:43;5.75;;;3.08;;
19605;SDS011;9950;50.168;8.210;2023-11-22T14:23:10;6.22;;;3.00;;
19605;SDS011;9950;50.168;8.210;2023-11-22T14:25:38;4.65;;;3.00;;
19605;SDS011;9950;50.168;8.210;2023-11-22T14:28:06;4.72;;;3.05;;
19605;SDS011;9950;50.168;8.210;2023-11-22T14:30:33;4.32;;;2.70;;
19605;SDS011;9950;50.168;8.210;2023-11-22T14:33:02;6.18;;;2.70;;
19605;SDS011;9950;50.168;8.210;2023-11-22T14:35:31;5.75;;;3.15;;
19605;SDS011;9950;50.168;8.210;2023-11-22T14:37:58;4.55;;;2.80;;
19605;SDS011;9950;50.168;8.210;2023-11-22T14:40:25;4.70;;;3.00;;
19605;SDS011;9950;50.168;8.210;2023-11-22T14:42:57;4.40;;;2.95;;
19605;SDS011;9950;50.168;8.210;2023-11-22T14:45:25;4.47;;;2.67;;
19605;SDS011;9950;50.168;8.210;2023-11-22T14:47:52;3.80;;;2.80;;
19605;SDS011;9950;50.168;8.210;2023-11-22T14:50:21;6.63;;;3.03;;
19605;SDS011;9950;50.168;8.210;2023-11-22T14:52:52;4.13;;;2.90;;
19605;SDS011;9950;50.168;8.210;2023-11-22T14:55:19;4.40;;;2.75;;
19605;SDS011;9950;50.168;8.210;2023-11-22T14:57:49;5.10;;;3.03;;
19605;SDS011;9950;50.168;8.210;2023-11-22T15:00:20;4.90;;;3.10;;
19605;SDS011;9950;50.168;8.210;2023-11-22T15:02:47;6.15;;;3.17;;